Time;durP1;ratioP1;P1;durP2;ratioP2;P2;SDS_P1;SDS_P2;PMS_P1;PMS_P2;Temp;Humidity;BMP_temperature;BMP_pressure;BME280_temperature;BME280_humidity;BME280_pressure;Samples;Min_cycle;Max_cycle;Signal;HPM_P1;HPM_P2
2022/10/07 00:01:02;;;;;;;28.57;14.60;;;;;;;;;;4959566;28;87179;-49
2022/10/07 00:03:30;;;;;;;27.63;15.03;;;;;;;;;;4960038;28;88066;-49
2022/10/07 00:06:05;;;;;;;30.13;14.93;;;;;;;;;;4959365;28;87827;-48
2022/10/07 00:08:34;;;;;;;28.23;13.17;;;;;;;;;;4960594;28;87018;-48
2022/10/07 00:11:05;;;;;;;25.73;14.03;;;;;;;;;;4961945;28;86240;-49
2022/10/07 00:13:37;;;;;;;22.33;12.67;;;;;;;;;;4962152;28;87993;-49
2022/10/07 00:16:06;;;;;;;23.07;12.53;;;;;;;;;;4959912;28;87686;-48
2022/10/07 00:18:35;;;;;;;27.60;14.37;;;;;;;;;;4960129;28;89562;-48
2022/10/07 00:21:04;;;;;;;23.27;13.20;;;;;;;;;;4960843;28;87105;-49
2022/10/07 00:23:32;;;;;;;24.07;12.90;;;;;;;;;;4960064;28;87567;-49
2022/10/07 00:26:01;;;;;;;23.70;10.97;;;;;;;;;;4959270;28;88888;-49
2022/10/07 00:28:29;;;;;;;25.37;12.53;;;;;;;;;;4959604;28;87231;-49
2022/10/07 00:30:59;;;;;;;29.80;12.33;;;;;;;;;;4960862;28;86958;-48
2022/10/07 00:33:27;;;;;;;20.10;11.63;;;;;;;;;;4960715;28;89042;-48
2022/10/07 00:35:56;;;;;;;20.87;12.47;;;;;;;;;;4960271;28;88855;-48
2022/10/07 00:38:24;;;;;;;23.73;11.17;;;;;;;;;;4960003;28;87038;-48
2022/10/07 00:40:52;;;;;;;20.67;10.63;;;;;;;;;;4960041;28;87112;-49
2022/10/07 00:43:25;;;;;;;17.03;10.87;;;;;;;;;;4958698;28;89067;-48
2022/10/07 00:45:53;;;;;;;16.47;9.43;;;;;;;;;;4958941;28;88845;-49
2022/10/07 00:48:24;;;;;;;18.90;10.53;;;;;;;;;;4960580;28;87050;-48
2022/10/07 00:50:53;;;;;;;18.73;9.80;;;;;;;;;;4959565;28;87018;-49
2022/10/07 00:53:21;;;;;;;18.37;10.37;;;;;;;;;;4959218;28;88042;-49
2022/10/07 00:55:49;;;;;;;15.97;9.87;;;;;;;;;;4959144;28;87625;-49
2022/10/07 00:58:18;;;;;;;17.77;9.47;;;;;;;;;;4960666;28;86979;-48
2022/10/07 01:00:46;;;;;;;16.13;8.93;;;;;;;;;;4961271;28;86355;-48
2022/10/07 01:03:15;;;;;;;18.60;9.60;;;;;;;;;;4959907;28;87852;-48
2022/10/07 01:05:44;;;;;;;14.27;8.60;;;;;;;;;;4960059;28;88763;-48
2022/10/07 01:08:14;;;;;;;15.20;8.27;;;;;;;;;;4959724;28;88093;-48
2022/10/07 01:10:45;;;;;;;14.67;8.10;;;;;;;;;;4959805;28;87025;-48
2022/10/07 01:13:14;;;;;;;14.27;7.97;;;;;;;;;;4956987;28;89105;-48
2022/10/07 01:15:44;;;;;;;17.47;8.63;;;;;;;;;;4957772;28;88790;-48
2022/10/07 01:18:13;;;;;;;14.30;8.43;;;;;;;;;;4960200;28;88484;-48
2022/10/07 01:20:45;;;;;;;15.43;8.87;;;;;;;;;;4960522;28;88616;-48
2022/10/07 01:23:21;;;;;;;11.97;8.10;;;;;;;;;;4958536;28;88486;-48
2022/10/07 01:25:55;;;;;;;12.17;7.13;;;;;;;;;;4962754;28;88694;-48
2022/10/07 01:28:25;;;;;;;12.10;8.00;;;;;;;;;;4963453;28;87708;-48
2022/10/07 01:30:55;;;;;;;15.50;8.37;;;;;;;;;;4962893;28;87149;-48
2022/10/07 01:33:26;;;;;;;18.00;8.27;;;;;;;;;;4963283;28;88899;-48
2022/10/07 01:35:55;;;;;;;9.83;6.47;;;;;;;;;;4963106;28;88578;-48
2022/10/07 01:38:25;;;;;;;10.80;6.30;;;;;;;;;;4963845;28;87040;-48
2022/10/07 01:40:54;;;;;;;13.03;6.93;;;;;;;;;;4963208;28;86959;-49
2022/10/07 01:43:24;;;;;;;12.03;6.27;;;;;;;;;;4963287;28;88145;-48
2022/10/07 01:45:53;;;;;;;13.00;6.77;;;;;;;;;;4962176;28;87614;-48
2022/10/07 01:48:21;;;;;;;11.90;5.67;;;;;;;;;;4962670;28;87051;-48
2022/10/07 01:50:50;;;;;;;9.03;6.13;;;;;;;;;;4962678;28;86335;-48
2022/10/07 01:53:22;;;;;;;12.17;6.17;;;;;;;;;;4962854;28;88677;-48
2022/10/07 01:55:52;;;;;;;7.53;4.73;;;;;;;;;;4962179;28;88035;-48
2022/10/07 01:58:25;;;;;;;8.43;5.70;;;;;;;;;;4962031;28;87886;-48
2022/10/07 02:00:55;;;;;;;11.13;5.13;;;;;;;;;;4962782;28;86923;-48
2022/10/07 02:03:38;;;;;;;10.53;5.17;;;;;;;;;;4963440;28;88028;-49
2022/10/07 02:06:07;;;;;;;13.20;5.10;;;;;;;;;;4957690;28;87978;-49
2022/10/07 02:08:37;;;;;;;8.43;4.67;;;;;;;;;;4962885;28;87029;-48
2022/10/07 02:11:09;;;;;;;8.17;5.03;;;;;;;;;;4962754;28;87869;-48
2022/10/07 02:13:40;;;;;;;11.13;5.40;;;;;;;;;;4961755;28;89154;-48
2022/10/07 02:16:10;;;;;;;8.03;4.83;;;;;;;;;;4963177;28;88779;-48
2022/10/07 02:18:38;;;;;;;8.07;4.63;;;;;;;;;;4962399;28;87108;-48
2022/10/07 02:21:07;;;;;;;9.27;5.23;;;;;;;;;;4962449;28;87108;-48
2022/10/07 02:23:35;;;;;;;10.40;4.73;;;;;;;;;;4961840;28;88882;-48
2022/10/07 02:26:04;;;;;;;9.43;4.60;;;;;;;;;;4962383;28;87429;-48
2022/10/07 02:28:32;;;;;;;9.13;4.60;;;;;;;;;;4962359;28;86950;-48
2022/10/07 02:31:02;;;;;;;9.90;4.87;;;;;;;;;;4961890;28;86993;-48
2022/10/07 02:33:30;;;;;;;9.47;5.23;;;;;;;;;;4961896;28;88178;-48
2022/10/07 02:35:59;;;;;;;5.13;3.67;;;;;;;;;;4962209;28;87823;-48
2022/10/07 02:38:28;;;;;;;5.13;3.27;;;;;;;;;;4962979;28;87065;-48
2022/10/07 02:40:59;;;;;;;6.60;4.37;;;;;;;;;;4962519;28;86245;-48
2022/10/07 02:43:28;;;;;;;8.00;4.07;;;;;;;;;;4961274;28;87718;-48
2022/10/07 02:45:58;;;;;;;5.93;3.10;;;;;;;;;;4961374;28;87656;-48
2022/10/07 02:48:28;;;;;;;5.63;3.00;;;;;;;;;;4961999;28;87988;-48
2022/10/07 02:50:59;;;;;;;5.67;3.30;;;;;;;;;;4960659;28;87090;-48
2022/10/07 02:53:27;;;;;;;5.73;3.43;;;;;;;;;;4959592;28;87026;-48
2022/10/07 02:55:55;;;;;;;4.77;3.33;;;;;;;;;;4955527;28;88839;-48
2022/10/07 02:58:25;;;;;;;5.40;3.37;;;;;;;;;;4961995;28;87179;-48
2022/10/07 03:00:53;;;;;;;7.17;3.83;;;;;;;;;;4961245;28;87048;-48
2022/10/07 03:03:22;;;;;;;6.80;3.50;;;;;;;;;;4962454;28;87926;-48
2022/10/07 03:05:51;;;;;;;3.93;2.57;;;;;;;;;;4961920;28;87733;-48
2022/10/07 03:08:20;;;;;;;5.73;2.33;;;;;;;;;;4962142;28;87215;-48
2022/10/07 03:10:48;;;;;;;5.57;3.03;;;;;;;;;;4962001;28;87077;-48
2022/10/07 03:13:16;;;;;;;5.10;3.30;;;;;;;;;;4961149;28;88861;-48
2022/10/07 03:15:45;;;;;;;4.57;2.30;;;;;;;;;;4960538;28;88764;-48
2022/10/07 03:18:27;;;;;;;3.77;2.33;;;;;;;;;;4957961;28;88158;-48
2022/10/07 03:20:57;;;;;;;6.53;2.83;;;;;;;;;;4962178;28;87052;-48
2022/10/07 03:23:25;;;;;;;4.70;2.30;;;;;;;;;;4961593;28;87922;-47
2022/10/07 03:25:54;;;;;;;3.27;2.00;;;;;;;;;;4961119;28;87643;-47
2022/10/07 03:28:23;;;;;;;5.20;2.50;;;;;;;;;;4962391;28;87054;-48
2022/10/07 03:30:51;;;;;;;5.90;2.67;;;;;;;;;;4961590;28;87085;-48
2022/10/07 03:33:23;;;;;;;3.27;2.43;;;;;;;;;;4961684;28;88214;-47
2022/10/07 03:35:52;;;;;;;2.90;2.03;;;;;;;;;;4960111;28;87477;-47
2022/10/07 03:38:22;;;;;;;3.27;1.97;;;;;;;;;;4960992;28;89364;-47
2022/10/07 03:40:50;;;;;;;4.90;2.37;;;;;;;;;;4961601;28;86898;-48
2022/10/07 03:43:19;;;;;;;3.43;2.20;;;;;;;;;;4961401;28;87851;-48
2022/10/07 03:45:49;;;;;;;2.90;1.93;;;;;;;;;;4958934;28;87959;-47
2022/10/07 03:48:18;;;;;;;4.57;2.37;;;;;;;;;;4962170;28;86981;-48
2022/10/07 03:50:48;;;;;;;2.20;1.90;;;;;;;;;;4961046;28;87850;-48
2022/10/07 03:53:17;;;;;;;2.33;1.53;;;;;;;;;;4960937;28;88244;-48
2022/10/07 03:55:46;;;;;;;4.80;2.03;;;;;;;;;;4961195;28;87465;-49
2022/10/07 03:58:15;;;;;;;3.30;2.00;;;;;;;;;;4960239;28;87062;-48
2022/10/07 04:00:43;;;;;;;2.77;1.60;;;;;;;;;;4962396;28;87629;-48
2022/10/07 04:03:12;;;;;;;2.37;1.67;;;;;;;;;;4960451;28;88881;-47
2022/10/07 04:05:40;;;;;;;2.53;1.80;;;;;;;;;;4960606;28;90263;-48
2022/10/07 04:08:10;;;;;;;2.00;1.40;;;;;;;;;;4961072;28;87114;-47
2022/10/07 04:10:38;;;;;;;1.77;1.57;;;;;;;;;;4961269;28;86965;-47
2022/10/07 04:13:08;;;;;;;2.43;1.67;;;;;;;;;;4959982;28;87917;-47
2022/10/07 04:15:37;;;;;;;3.47;1.60;;;;;;;;;;4960819;28;88624;-48
2022/10/07 04:18:06;;;;;;;2.17;1.77;;;;;;;;;;4960363;28;87764;-47
2022/10/07 04:20:34;;;;;;;2.90;1.60;;;;;;;;;;4964785;28;86458;-48
2022/10/07 04:23:02;;;;;;;4.00;1.80;;;;;;;;;;4962618;28;88094;-48
2022/10/07 04:25:33;;;;;;;4.23;1.47;;;;;;;;;;4960744;28;87927;-47
2022/10/07 04:28:02;;;;;;;2.17;1.93;;;;;;;;;;4949123;28;87915;-48
2022/10/07 04:30:32;;;;;;;2.33;1.73;;;;;;;;;;4967491;28;88227;-47
2022/10/07 04:33:01;;;;;;;1.97;1.50;;;;;;;;;;4961368;28;87944;-48
2022/10/07 04:35:29;;;;;;;3.33;1.90;;;;;;;;;;4959561;28;87833;-48
2022/10/07 04:37:58;;;;;;;2.73;1.37;;;;;;;;;;4961711;28;87100;-48
2022/10/07 04:40:26;;;;;;;2.33;1.43;;;;;;;;;;4965130;28;87119;-48
2022/10/07 04:45:42;;;;;;;4.37;1.10;;;;;;;;;;4961574;28;88469;-48
2022/10/07 04:48:10;;;;;;;2.40;1.43;;;;;;;;;;4965030;28;87768;-48
2022/10/07 04:50:38;;;;;;;2.60;1.30;;;;;;;;;;4965794;28;87077;-47
2022/10/07 04:53:07;;;;;;;3.37;1.90;;;;;;;;;;4965776;28;89883;-48
2022/10/07 04:55:37;;;;;;;2.40;1.17;;;;;;;;;;4972075;28;88791;-48
2022/10/07 04:58:05;;;;;;;2.77;1.87;;;;;;;;;;4969456;28;87043;-48
2022/10/07 05:00:34;;;;;;;1.90;1.60;;;;;;;;;;4972475;28;87806;-48
2022/10/07 05:03:04;;;;;;;2.13;1.47;;;;;;;;;;4971298;28;87985;-48
2022/10/07 05:05:33;;;;;;;2.33;1.20;;;;;;;;;;4969661;28;87606;-48
2022/10/07 05:08:01;;;;;;;2.90;1.37;;;;;;;;;;4970854;28;87034;-48
2022/10/07 05:10:29;;;;;;;5.37;1.87;;;;;;;;;;4972657;28;86435;-48
2022/10/07 05:12:58;;;;;;;2.30;1.63;;;;;;;;;;4973634;28;89190;-47
2022/10/07 05:15:26;;;;;;;1.80;1.23;;;;;;;;;;4973098;28;87614;-50
2022/10/07 05:17:54;;;;;;;4.60;2.27;;;;;;;;;;4958740;28;88910;-48
2022/10/07 05:20:24;;;;;;;3.53;1.70;;;;;;;;;;4962863;28;87132;-48
2022/10/07 05:22:52;;;;;;;2.50;1.60;;;;;;;;;;4970715;28;87876;-48
2022/10/07 05:25:21;;;;;;;3.17;1.73;;;;;;;;;;4963031;28;87535;-48
2022/10/07 05:27:53;;;;;;;3.33;2.10;;;;;;;;;;4963852;28;87190;-48
2022/10/07 05:30:22;;;;;;;4.50;2.37;;;;;;;;;;4961994;28;87413;-47
2022/10/07 05:32:50;;;;;;;3.43;1.83;;;;;;;;;;4963087;28;87779;-47
2022/10/07 05:35:18;;;;;;;5.30;2.33;;;;;;;;;;4963358;28;87935;-47
2022/10/07 05:37:48;;;;;;;2.57;1.77;;;;;;;;;;4963376;28;87071;-50
2022/10/07 05:40:18;;;;;;;3.33;2.30;;;;;;;;;;4962473;28;87097;-48
2022/10/07 05:42:46;;;;;;;4.53;2.80;;;;;;;;;;4964979;28;89148;-47
2022/10/07 05:45:15;;;;;;;4.30;2.57;;;;;;;;;;4965606;28;88527;-48
2022/10/07 05:47:43;;;;;;;3.73;2.53;;;;;;;;;;4971871;28;87140;-48
2022/10/07 05:50:12;;;;;;;3.87;2.63;;;;;;;;;;4969172;28;87036;-48
2022/10/07 05:52:41;;;;;;;4.33;2.57;;;;;;;;;;4972157;28;87952;-48
2022/10/07 05:55:11;;;;;;;6.20;3.97;;;;;;;;;;4968046;28;88772;-49
2022/10/07 05:57:40;;;;;;;4.67;3.50;;;;;;;;;;4969490;28;87572;-49
2022/10/07 06:00:09;;;;;;;7.73;4.23;;;;;;;;;;4966504;28;88218;-48
2022/10/07 06:02:37;;;;;;;5.60;4.03;;;;;;;;;;4969947;28;87897;-51
2022/10/07 06:05:06;;;;;;;10.60;5.17;;;;;;;;;;4961357;28;87637;-49
2022/10/07 06:07:34;;;;;;;7.17;4.37;;;;;;;;;;4970733;28;88074;-48
2022/10/07 06:13:08;;;;;;;9.33;4.63;;;;;;;;;;4970090;28;89040;-49
2022/10/07 06:15:36;;;;;;;10.30;4.90;;;;;;;;;;4968722;28;87744;-48
2022/10/07 06:18:05;;;;;;;10.60;5.77;;;;;;;;;;4972299;28;87157;-50
2022/10/07 06:20:33;;;;;;;9.03;5.60;;;;;;;;;;4969487;28;87235;-49
2022/10/07 06:23:01;;;;;;;6.97;3.80;;;;;;;;;;4967739;28;90303;-48
2022/10/07 06:25:30;;;;;;;9.77;5.30;;;;;;;;;;4967915;28;88406;-48
2022/10/07 06:28:00;;;;;;;11.73;6.70;;;;;;;;;;4968673;28;87143;-48
2022/10/07 06:30:29;;;;;;;12.33;6.37;;;;;;;;;;4971810;28;87091;-49
2022/10/07 06:32:58;;;;;;;9.37;5.47;;;;;;;;;;4971487;28;89004;-49
2022/10/07 06:35:26;;;;;;;10.10;5.27;;;;;;;;;;4969571;28;87460;-50
2022/10/07 06:37:55;;;;;;;12.30;7.00;;;;;;;;;;4953020;28;87219;-48
2022/10/07 06:40:23;;;;;;;9.63;6.07;;;;;;;;;;4970867;28;87086;-49
2022/10/07 06:42:52;;;;;;;11.17;5.53;;;;;;;;;;4968330;28;89251;-48
2022/10/07 06:45:22;;;;;;;12.57;7.37;;;;;;;;;;4968199;28;88827;-51
2022/10/07 06:47:50;;;;;;;15.00;6.73;;;;;;;;;;4966848;28;87097;-50
2022/10/07 06:50:18;;;;;;;12.73;6.23;;;;;;;;;;4965209;28;86364;-50
2022/10/07 06:52:47;;;;;;;14.17;7.33;;;;;;;;;;4970391;28;88777;-49
2022/10/07 06:55:16;;;;;;;12.77;6.77;;;;;;;;;;4965236;28;87625;-49
2022/10/07 06:57:45;;;;;;;13.33;7.83;;;;;;;;;;4968411;28;88222;-49
2022/10/07 07:00:14;;;;;;;11.43;6.30;;;;;;;;;;4968050;28;87064;-49
2022/10/07 07:02:44;;;;;;;13.67;7.17;;;;;;;;;;4969251;28;88954;-49
2022/10/07 07:05:14;;;;;;;19.53;7.70;;;;;;;;;;4966024;28;87821;-50
2022/10/07 07:07:42;;;;;;;16.33;7.47;;;;;;;;;;4969802;28;87030;-49
2022/10/07 07:10:11;;;;;;;13.27;6.70;;;;;;;;;;4967941;28;87066;-49
2022/10/07 07:12:39;;;;;;;12.83;6.77;;;;;;;;;;4960202;28;87884;-49
2022/10/07 07:15:08;;;;;;;11.17;6.33;;;;;;;;;;4967922;28;88015;-49
2022/10/07 07:17:36;;;;;;;9.87;6.70;;;;;;;;;;4962538;28;87462;-49
2022/10/07 07:20:07;;;;;;;12.73;6.70;;;;;;;;;;4965350;28;87109;-49
2022/10/07 07:22:35;;;;;;;10.80;6.87;;;;;;;;;;4959894;28;88777;-50
2022/10/07 07:25:03;;;;;;;12.30;6.20;;;;;;;;;;4969278;28;89929;-49
2022/10/07 07:27:34;;;;;;;12.80;6.33;;;;;;;;;;4970303;28;87417;-49
2022/10/07 07:30:03;;;;;;;11.93;6.83;;;;;;;;;;4971351;28;86846;-48
2022/10/07 07:32:32;;;;;;;12.03;6.33;;;;;;;;;;4968556;28;88182;-49
2022/10/07 07:35:03;;;;;;;14.73;7.90;;;;;;;;;;4968035;28;89042;-50
2022/10/07 07:37:33;;;;;;;8.53;6.37;;;;;;;;;;4969226;28;87100;-49
2022/10/07 07:40:01;;;;;;;8.83;5.67;;;;;;;;;;4967479;28;86354;-49
2022/10/07 07:42:29;;;;;;;10.83;6.23;;;;;;;;;;4969193;28;87878;-50
2022/10/07 07:44:58;;;;;;;13.33;6.97;;;;;;;;;;4968357;28;87060;-49
2022/10/07 07:47:27;;;;;;;12.00;6.07;;;;;;;;;;4968553;28;87913;-50
2022/10/07 07:49:55;;;;;;;11.27;5.73;;;;;;;;;;4969636;28;87046;-50
2022/10/07 07:52:24;;;;;;;8.57;3.53;;;;;;;;;;4970545;28;88104;-50
2022/10/07 07:54:57;;;;;;;7.63;4.03;;;;;;;;;;4961592;28;87064;-50
2022/10/07 07:57:25;;;;;;;7.23;4.07;;;;;;;;;;4967332;28;87072;-52
2022/10/07 07:59:54;;;;;;;6.43;3.90;;;;;;;;;;4967529;28;87062;-49
2022/10/07 08:02:22;;;;;;;4.43;3.03;;;;;;;;;;4965587;28;87941;-50
2022/10/07 08:04:52;;;;;;;4.77;2.73;;;;;;;;;;4967059;28;88754;-50
2022/10/07 08:07:21;;;;;;;6.70;3.10;;;;;;;;;;4961433;28;87145;-50
2022/10/07 08:09:49;;;;;;;4.97;2.63;;;;;;;;;;4962187;28;87090;-51
2022/10/07 08:12:22;;;;;;;5.33;3.10;;;;;;;;;;4971015;28;89242;-49
2022/10/07 08:14:51;;;;;;;2.93;2.67;;;;;;;;;;4960467;28;87579;-50
2022/10/07 08:17:19;;;;;;;4.60;1.77;;;;;;;;;;4964066;28;87194;-50
2022/10/07 08:19:47;;;;;;;3.43;1.80;;;;;;;;;;4960029;28;88525;-53
2022/10/07 08:22:17;;;;;;;3.30;1.63;;;;;;;;;;4960398;28;88312;-56
2022/10/07 08:24:45;;;;;;;2.23;1.30;;;;;;;;;;4964390;28;88023;-55
2022/10/07 08:27:14;;;;;;;4.80;2.17;;;;;;;;;;4977737;28;87013;-58
2022/10/07 08:29:43;;;;;;;3.43;1.57;;;;;;;;;;4967579;28;86349;-58
2022/10/07 08:32:12;;;;;;;3.67;2.10;;;;;;;;;;4968655;28;89105;-58
2022/10/07 08:34:40;;;;;;;5.87;1.80;;;;;;;;;;4961431;28;87799;-57
2022/10/07 08:37:09;;;;;;;6.33;1.83;;;;;;;;;;4960858;28;88026;-56
2022/10/07 08:39:37;;;;;;;5.77;2.07;;;;;;;;;;4961383;28;87084;-55
2022/10/07 08:42:07;;;;;;;6.40;2.50;;;;;;;;;;4959459;28;89230;-54
2022/10/07 08:44:37;;;;;;;7.43;2.17;;;;;;;;;;4978512;28;88770;-55
2022/10/07 08:47:10;;;;;;;8.10;1.93;;;;;;;;;;4968251;28;87005;-55
2022/10/07 08:49:41;;;;;;;2.63;1.60;;;;;;;;;;4961108;28;86987;-58
2022/10/07 08:52:20;;;;;;;2.80;2.17;;;;;;;;;;4961458;28;88029;-57
2022/10/07 08:54:48;;;;;;;5.27;2.80;;;;;;;;;;4961014;28;88888;-54
2022/10/07 08:57:21;;;;;;;6.03;2.97;;;;;;;;;;4961418;28;87052;-54
2022/10/07 08:59:51;;;;;;;4.63;1.60;;;;;;;;;;4943797;28;87987;-53
2022/10/07 09:02:23;;;;;;;4.73;2.27;;;;;;;;;;4964397;28;88019;-54
2022/10/07 09:04:53;;;;;;;2.80;1.30;;;;;;;;;;4959735;28;88902;-55
2022/10/07 09:07:26;;;;;;;2.83;1.27;;;;;;;;;;4966156;28;88243;-54
2022/10/07 09:09:56;;;;;;;1.33;1.03;;;;;;;;;;4961336;28;87043;-56
2022/10/07 09:12:25;;;;;;;3.77;1.20;;;;;;;;;;4960998;28;89171;-54
2022/10/07 09:14:55;;;;;;;1.97;1.40;;;;;;;;;;4961052;28;87605;-56
2022/10/07 09:17:25;;;;;;;2.23;1.00;;;;;;;;;;4965109;28;87011;-54
2022/10/07 09:19:58;;;;;;;0.53;0.47;;;;;;;;;;4969774;28;86423;-55
2022/10/07 09:22:29;;;;;;;1.57;1.00;;;;;;;;;;4969172;28;88865;-55
2022/10/07 09:25:00;;;;;;;4.27;0.70;;;;;;;;;;4971367;28;88808;-56
2022/10/07 09:27:28;;;;;;;2.33;1.00;;;;;;;;;;4961500;28;87969;-56
2022/10/07 09:29:57;;;;;;;2.97;1.17;;;;;;;;;;4960269;28;87169;-54
2022/10/07 09:32:26;;;;;;;2.63;1.20;;;;;;;;;;4957729;28;88794;-53
2022/10/07 09:34:55;;;;;;;4.20;1.43;;;;;;;;;;4961867;28;87082;-56
2022/10/07 09:37:23;;;;;;;3.10;1.30;;;;;;;;;;4963135;28;87749;-54
2022/10/07 09:39:52;;;;;;;2.93;1.20;;;;;;;;;;4976905;28;87363;-54
2022/10/07 09:42:26;;;;;;;0.90;0.90;;;;;;;;;;4966646;28;87939;-55
2022/10/07 09:44:54;;;;;;;5.13;1.30;;;;;;;;;;4963610;28;87852;-55
2022/10/07 09:47:23;;;;;;;2.10;0.90;;;;;;;;;;4964127;28;87228;-55
2022/10/07 09:49:53;;;;;;;1.87;0.90;;;;;;;;;;4963144;28;87067;-56
2022/10/07 09:52:22;;;;;;;3.70;0.83;;;;;;;;;;4961202;28;88825;-54
2022/10/07 09:54:51;;;;;;;2.77;1.40;;;;;;;;;;4962374;28;89804;-56
2022/10/07 09:57:27;;;;;;;4.70;1.10;;;;;;;;;;4964240;28;86985;-55
2022/10/07 10:00:14;;;;;;;3.20;1.00;;;;;;;;;;4963574;28;86955;-54
2022/10/07 10:02:43;;;;;;;4.43;1.30;;;;;;;;;;4962489;28;91703;-56
2022/10/07 10:05:20;;;;;;;3.60;1.07;;;;;;;;;;4980736;28;87575;-56
2022/10/07 10:07:48;;;;;;;3.03;1.17;;;;;;;;;;4960033;28;86911;-56
2022/10/07 10:10:17;;;;;;;2.27;0.83;;;;;;;;;;4976135;28;86236;-56
2022/10/07 10:12:45;;;;;;;2.10;1.43;;;;;;;;;;4972075;28;89095;-56
2022/10/07 10:15:17;;;;;;;1.97;0.83;;;;;;;;;;4982715;28;87089;-56
2022/10/07 10:17:45;;;;;;;3.40;1.40;;;;;;;;;;4980450;28;88057;-56
2022/10/07 10:20:28;;;;;;;1.40;1.30;;;;;;;;;;4965039;28;86974;-55
2022/10/07 10:22:56;;;;;;;2.93;1.33;;;;;;;;;;4962375;28;88090;-54
2022/10/07 10:28:13;;;;;;;1.37;1.03;;;;;;;;;;4963400;28;87070;-57
2022/10/07 10:30:42;;;;;;;2.00;0.60;;;;;;;;;;4969112;28;87144;-56
2022/10/07 10:33:13;;;;;;;2.63;1.13;;;;;;;;;;4977169;28;88779;-55
2022/10/07 10:35:45;;;;;;;1.27;1.10;;;;;;;;;;4983213;28;87932;-55
2022/10/07 10:38:18;;;;;;;1.37;0.70;;;;;;;;;;4978356;28;87066;-56
2022/10/07 10:40:48;;;;;;;1.37;0.73;;;;;;;;;;4971195;28;87289;-55
2022/10/07 10:43:22;;;;;;;2.30;0.70;;;;;;;;;;4972907;28;89843;-55
2022/10/07 10:45:59;;;;;;;3.17;1.33;;;;;;;;;;4969376;28;88680;-54
2022/10/07 10:48:29;;;;;;;3.90;1.10;;;;;;;;;;4967066;28;88315;-56
2022/10/07 10:51:01;;;;;;;2.57;1.27;;;;;;;;;;4970323;28;87017;-56
2022/10/07 10:53:33;;;;;;;1.80;0.93;;;;;;;;;;4972592;28;88306;-54
2022/10/07 10:56:08;;;;;;;2.80;0.90;;;;;;;;;;4969444;28;87815;-55
2022/10/07 10:58:41;;;;;;;1.93;1.37;;;;;;;;;;4970531;28;87126;-54
2022/10/07 11:01:11;;;;;;;1.43;1.10;;;;;;;;;;4970827;28;88014;-56
2022/10/07 11:03:44;;;;;;;1.43;0.90;;;;;;;;;;4971280;28;87144;-55
2022/10/07 11:06:15;;;;;;;2.00;1.07;;;;;;;;;;4969086;28;87952;-54
2022/10/07 11:08:46;;;;;;;2.90;1.00;;;;;;;;;;4965517;28;88101;-54
2022/10/07 11:11:16;;;;;;;2.47;0.87;;;;;;;;;;4965758;28;87097;-56
2022/10/07 11:13:45;;;;;;;2.03;1.20;;;;;;;;;;4965857;28;88256;-55
2022/10/07 11:16:16;;;;;;;1.10;0.87;;;;;;;;;;4969391;28;89037;-55
2022/10/07 11:18:45;;;;;;;3.80;1.23;;;;;;;;;;4971828;28;86854;-55
2022/10/07 11:21:17;;;;;;;0.97;0.70;;;;;;;;;;4970480;28;87097;-55
2022/10/07 11:23:49;;;;;;;3.10;0.93;;;;;;;;;;4969172;28;89728;-56
2022/10/07 11:26:19;;;;;;;0.73;0.60;;;;;;;;;;4972165;28;87729;-55
2022/10/07 11:28:47;;;;;;;2.93;0.70;;;;;;;;;;4969740;28;86960;-56
2022/10/07 11:31:17;;;;;;;1.27;0.70;;;;;;;;;;4968613;28;87116;-54
2022/10/07 11:33:47;;;;;;;0.87;0.87;;;;;;;;;;4962901;28;90299;-55
2022/10/07 11:36:18;;;;;;;0.60;0.60;;;;;;;;;;4973793;28;89688;-55
2022/10/07 11:38:47;;;;;;;1.90;0.83;;;;;;;;;;4973454;28;87379;-55
2022/10/07 11:41:16;;;;;;;1.33;1.00;;;;;;;;;;4960595;28;87089;-55
2022/10/07 11:43:45;;;;;;;1.77;1.50;;;;;;;;;;4961554;28;88123;-57
2022/10/07 11:46:16;;;;;;;1.63;1.00;;;;;;;;;;4961513;28;87117;-56
2022/10/07 11:48:45;;;;;;;1.17;0.60;;;;;;;;;;4962296;28;87521;-57
2022/10/07 11:51:18;;;;;;;0.90;0.70;;;;;;;;;;4962192;28;86319;-56
2022/10/07 11:53:47;;;;;;;1.57;1.10;;;;;;;;;;4961373;28;89036;-55
2022/10/07 11:56:16;;;;;;;2.33;1.30;;;;;;;;;;4960963;28;88929;-55
2022/10/07 11:58:45;;;;;;;4.13;1.27;;;;;;;;;;4967042;28;90018;-55
2022/10/07 12:01:40;;;;;;;2.73;1.00;;;;;;;;;;4965625;28;88222;-55
2022/10/07 12:04:23;;;;;;;1.67;1.43;;;;;;;;;;4923856;28;89233;-55
2022/10/07 12:07:10;;;;;;;2.27;0.97;;;;;;;;;;4966324;28;88863;-56
2022/10/07 12:09:56;;;;;;;6.43;0.80;;;;;;;;;;4972387;28;87562;-57
2022/10/07 12:12:24;;;;;;;1.60;0.83;;;;;;;;;;4965757;28;86982;-54
2022/10/07 12:14:59;;;;;;;1.13;0.87;;;;;;;;;;4961202;28;88964;-55
2022/10/07 12:17:29;;;;;;;1.03;0.63;;;;;;;;;;4969523;28;87963;-55
2022/10/07 12:20:16;;;;;;;3.10;1.17;;;;;;;;;;4963032;28;87007;-52
2022/10/07 12:22:44;;;;;;;1.30;1.00;;;;;;;;;;4960933;28;87107;-55
2022/10/07 12:25:30;;;;;;;1.33;0.90;;;;;;;;;;4960402;28;89973;-56
2022/10/07 12:27:59;;;;;;;2.93;1.07;;;;;;;;;;4959626;28;89791;-56
2022/10/07 12:30:37;;;;;;;0.67;0.60;;;;;;;;;;4960669;28;87580;-55
2022/10/07 12:33:16;;;;;;;1.93;1.20;;;;;;;;;;4970176;28;87225;-56
2022/10/07 12:35:45;;;;;;;3.43;1.23;;;;;;;;;;4960905;28;88043;-54
2022/10/07 12:38:23;;;;;;;2.33;0.97;;;;;;;;;;4961080;28;87604;-56
2022/10/07 12:40:54;;;;;;;1.17;0.80;;;;;;;;;;4961142;28;87092;-55
2022/10/07 12:43:25;;;;;;;1.90;1.00;;;;;;;;;;4969900;28;86383;-55
2022/10/07 12:45:53;;;;;;;0.77;0.70;;;;;;;;;;4966059;28;89298;-55
2022/10/07 12:48:22;;;;;;;2.83;1.03;;;;;;;;;;4969893;28;87725;-55
2022/10/07 12:50:51;;;;;;;4.83;1.23;;;;;;;;;;4974888;28;88047;-56
2022/10/07 12:53:19;;;;;;;1.33;1.00;;;;;;;;;;4970398;28;87132;-56
2022/10/07 12:55:49;;;;;;;1.63;0.90;;;;;;;;;;4969177;28;89411;-54
2022/10/07 13:01:15;;;;;;;1.20;0.93;;;;;;;;;;4980890;28;86915;-55
2022/10/07 13:03:54;;;;;;;4.53;1.07;;;;;;;;;;4967443;28;87349;-58
2022/10/07 13:06:31;;;;;;;3.67;1.37;;;;;;;;;;4964040;28;89326;-54
2022/10/07 13:09:14;;;;;;;3.30;1.13;;;;;;;;;;4969755;28;88902;-55
2022/10/07 13:12:01;;;;;;;1.60;1.50;;;;;;;;;;4970742;28;87144;-55
2022/10/07 13:14:32;;;;;;;2.77;1.17;;;;;;;;;;4972326;28;87026;-55
2022/10/07 13:17:02;;;;;;;2.20;1.40;;;;;;;;;;4969133;28;88016;-55
2022/10/07 13:19:31;;;;;;;2.80;1.20;;;;;;;;;;4971888;28;89768;-55
2022/10/07 13:22:01;;;;;;;1.10;0.77;;;;;;;;;;4969762;28;87125;-56
2022/10/07 13:24:29;;;;;;;2.77;1.37;;;;;;;;;;4972438;28;87163;-55
2022/10/07 13:26:57;;;;;;;1.33;1.03;;;;;;;;;;4973360;28;87606;-55
2022/10/07 13:29:26;;;;;;;3.70;1.00;;;;;;;;;;4972191;28;87068;-54
2022/10/07 13:32:06;;;;;;;2.97;1.23;;;;;;;;;;4968775;28;87059;-54
2022/10/07 13:34:35;;;;;;;0.80;0.80;;;;;;;;;;4967767;28;86285;-55
2022/10/07 13:37:04;;;;;;;1.60;1.00;;;;;;;;;;4979568;28;89326;-56
2022/10/07 13:39:32;;;;;;;1.63;1.37;;;;;;;;;;4969059;28;88878;-55
2022/10/07 13:42:01;;;;;;;1.10;0.97;;;;;;;;;;4972800;28;88002;-55
2022/10/07 13:44:30;;;;;;;2.80;1.30;;;;;;;;;;4971519;28;87030;-55
2022/10/07 13:47:00;;;;;;;3.27;1.53;;;;;;;;;;4972693;28;89235;-56
2022/10/07 13:49:29;;;;;;;1.30;0.93;;;;;;;;;;4973531;28;88228;-55
2022/10/07 13:51:59;;;;;;;0.90;0.80;;;;;;;;;;4972813;28;86819;-56
2022/10/07 13:54:28;;;;;;;3.07;1.27;;;;;;;;;;4971121;28;87145;-54
2022/10/07 13:56:56;;;;;;;2.30;1.43;;;;;;;;;;4971862;28;88046;-55
2022/10/07 13:59:24;;;;;;;4.93;0.80;;;;;;;;;;4973790;28;86445;-55
2022/10/07 14:01:53;;;;;;;6.17;1.40;;;;;;;;;;4969229;28;87005;-55
2022/10/07 14:04:24;;;;;;;1.50;0.97;;;;;;;;;;4971271;28;87297;-55
2022/10/07 14:06:55;;;;;;;2.03;0.50;;;;;;;;;;4967379;28;88733;-55
2022/10/07 14:09:26;;;;;;;1.23;1.00;;;;;;;;;;4970240;28;88894;-56
2022/10/07 14:11:55;;;;;;;0.90;0.80;;;;;;;;;;4977257;28;87642;-57
2022/10/07 14:14:25;;;;;;;0.97;0.73;;;;;;;;;;4983047;28;87615;-55
2022/10/07 14:16:57;;;;;;;1.53;0.87;;;;;;;;;;4983173;28;89233;-55
2022/10/07 14:19:31;;;;;;;3.87;1.20;;;;;;;;;;4981985;28;87985;-56
2022/10/07 14:22:02;;;;;;;1.27;0.77;;;;;;;;;;4983165;28;86738;-56
2022/10/07 14:24:30;;;;;;;0.70;0.70;;;;;;;;;;4983494;28;86273;-56
2022/10/07 14:26:59;;;;;;;0.87;0.63;;;;;;;;;;4971049;28;88238;-56
2022/10/07 14:29:36;;;;;;;2.30;0.97;;;;;;;;;;4963295;28;87916;-57
2022/10/07 14:37:47;;;;;;;2.67;0.70;;;;;;;;;;4972716;28;89091;-56
2022/10/07 14:40:19;;;;;;;2.07;0.77;;;;;;;;;;4968450;28;88894;-57
2022/10/07 14:42:47;;;;;;;5.23;1.13;;;;;;;;;;4963601;28;86977;-57
2022/10/07 14:45:16;;;;;;;2.60;1.17;;;;;;;;;;4963515;28;87112;-56
2022/10/07 14:47:45;;;;;;;1.10;0.67;;;;;;;;;;4963129;28;89127;-56
2022/10/07 14:50:16;;;;;;;2.00;1.43;;;;;;;;;;4963374;28;87638;-56
2022/10/07 14:52:45;;;;;;;3.27;1.30;;;;;;;;;;4963143;28;87082;-56
2022/10/07 14:55:17;;;;;;;2.50;1.20;;;;;;;;;;4963190;28;87049;-55
2022/10/07 14:57:46;;;;;;;0.60;0.60;;;;;;;;;;4961220;28;90113;-55
2022/10/07 15:00:16;;;;;;;1.00;0.90;;;;;;;;;;4963779;28;88821;-56
2022/10/07 15:02:44;;;;;;;0.90;0.90;;;;;;;;;;4971646;28;87071;-56
2022/10/07 15:05:13;;;;;;;1.30;0.90;;;;;;;;;;4967288;28;86998;-54
2022/10/07 15:07:42;;;;;;;0.70;0.70;;;;;;;;;;4970660;28;88206;-55
2022/10/07 15:10:16;;;;;;;1.93;0.97;;;;;;;;;;4961848;28;87855;-55
2022/10/07 15:12:45;;;;;;;0.77;0.60;;;;;;;;;;4965621;28;87050;-55